sensor_id;sensor_type;location;lat;lon;timestamp;P1;durP1;ratioP1;P2;durP2;ratioP2
12267;SDS011;6196;48.398;11.736;2022-10-31T00:01:21;3.73;;;2.63;;
12267;SDS011;6196;48.398;11.736;2022-10-31T00:03:58;3.43;;;2.23;;
12267;SDS011;6196;48.398;11.736;2022-10-31T00:06:24;2.50;;;2.30;;
12267;SDS011;6196;48.398;11.736;2022-10-31T00:08:53;2.87;;;2.30;;
12267;SDS011;6196;48.398;11.736;2022-10-31T00:11:22;2.50;;;2.30;;
12267;SDS011;6196;48.398;11.736;2022-10-31T00:13:50;4.57;;;2.73;;
12267;SDS011;6196;48.398;11.736;2022-10-31T00:16:18;3.00;;;2.20;;
12267;SDS011;6196;48.398;11.736;2022-10-31T00:18:55;2.27;;;2.00;;
12267;SDS011;6196;48.398;11.736;2022-10-31T00:21:25;4.70;;;2.53;;
12267;SDS011;6196;48.398;11.736;2022-10-31T00:23:53;6.00;;;3.67;;
12267;SDS011;6196;48.398;11.736;2022-10-31T00:26:19;6.73;;;4.70;;
12267;SDS011;6196;48.398;11.736;2022-10-31T00:28:46;7.03;;;5.33;;
12267;SDS011;6196;48.398;11.736;2022-10-31T00:31:14;15.57;;;5.73;;
12267;SDS011;6196;48.398;11.736;2022-10-31T00:33:41;13.70;;;5.57;;
12267;SDS011;6196;48.398;11.736;2022-10-31T00:36:10;7.60;;;5.17;;
12267;SDS011;6196;48.398;11.736;2022-10-31T00:38:40;6.30;;;4.27;;
12267;SDS011;6196;48.398;11.736;2022-10-31T00:41:09;6.00;;;4.50;;
12267;SDS011;6196;48.398;11.736;2022-10-31T00:43:36;4.80;;;4.27;;
12267;SDS011;6196;48.398;11.736;2022-10-31T00:46:03;4.60;;;4.10;;
12267;SDS011;6196;48.398;11.736;2022-10-31T00:48:30;4.37;;;3.80;;
12267;SDS011;6196;48.398;11.736;2022-10-31T00:50:57;5.37;;;4.23;;
12267;SDS011;6196;48.398;11.736;2022-10-31T00:53:24;4.70;;;4.17;;
12267;SDS011;6196;48.398;11.736;2022-10-31T00:55:51;3.87;;;3.47;;
12267;SDS011;6196;48.398;11.736;2022-10-31T00:58:18;3.57;;;3.27;;
12267;SDS011;6196;48.398;11.736;2022-10-31T01:00:48;4.27;;;3.20;;
12267;SDS011;6196;48.398;11.736;2022-10-31T01:03:24;5.43;;;3.67;;
12267;SDS011;6196;48.398;11.736;2022-10-31T01:06:01;4.10;;;3.70;;
12267;SDS011;6196;48.398;11.736;2022-10-31T01:08:32;5.77;;;4.23;;
12267;SDS011;6196;48.398;11.736;2022-10-31T01:11:01;4.90;;;4.33;;
12267;SDS011;6196;48.398;11.736;2022-10-31T01:13:34;6.03;;;5.00;;
12267;SDS011;6196;48.398;11.736;2022-10-31T01:16:02;4.03;;;3.60;;
12267;SDS011;6196;48.398;11.736;2022-10-31T01:18:31;3.87;;;3.50;;
12267;SDS011;6196;48.398;11.736;2022-10-31T01:20:59;3.47;;;3.17;;
12267;SDS011;6196;48.398;11.736;2022-10-31T01:23:36;5.50;;;3.23;;
12267;SDS011;6196;48.398;11.736;2022-10-31T01:28:46;4.13;;;3.10;;
12267;SDS011;6196;48.398;11.736;2022-10-31T01:31:16;2.97;;;2.70;;
12267;SDS011;6196;48.398;11.736;2022-10-31T01:33:45;3.40;;;3.10;;
12267;SDS011;6196;48.398;11.736;2022-10-31T01:38:47;4.00;;;3.60;;
12267;SDS011;6196;48.398;11.736;2022-10-31T01:41:20;4.13;;;3.27;;
12267;SDS011;6196;48.398;11.736;2022-10-31T01:43:52;8.17;;;3.30;;
12267;SDS011;6196;48.398;11.736;2022-10-31T01:46:27;3.33;;;3.03;;
12267;SDS011;6196;48.398;11.736;2022-10-31T01:49:09;3.20;;;2.90;;
12267;SDS011;6196;48.398;11.736;2022-10-31T01:51:55;5.27;;;3.10;;
12267;SDS011;6196;48.398;11.736;2022-10-31T01:54:29;3.13;;;2.80;;
12267;SDS011;6196;48.398;11.736;2022-10-31T01:57:00;4.37;;;3.50;;
12267;SDS011;6196;48.398;11.736;2022-10-31T01:59:29;3.20;;;2.90;;
12267;SDS011;6196;48.398;11.736;2022-10-31T02:02:01;8.40;;;3.67;;
12267;SDS011;6196;48.398;11.736;2022-10-31T02:04:28;38.83;;;4.93;;
12267;SDS011;6196;48.398;11.736;2022-10-31T02:07:00;4.20;;;2.97;;
12267;SDS011;6196;48.398;11.736;2022-10-31T02:09:33;3.20;;;2.90;;
12267;SDS011;6196;48.398;11.736;2022-10-31T02:12:01;5.23;;;2.80;;
12267;SDS011;6196;48.398;11.736;2022-10-31T02:14:29;3.43;;;3.13;;
12267;SDS011;6196;48.398;11.736;2022-10-31T02:16:57;4.97;;;3.20;;
12267;SDS011;6196;48.398;11.736;2022-10-31T02:19:33;5.20;;;3.97;;
12267;SDS011;6196;48.398;11.736;2022-10-31T02:34:18;5.60;;;3.97;;
12267;SDS011;6196;48.398;11.736;2022-10-31T02:36:58;4.53;;;4.13;;
12267;SDS011;6196;48.398;11.736;2022-10-31T02:45:47;3.80;;;3.50;;
12267;SDS011;6196;48.398;11.736;2022-10-31T02:48:47;4.57;;;3.83;;
12267;SDS011;6196;48.398;11.736;2022-10-31T02:51:17;6.00;;;4.27;;
12267;SDS011;6196;48.398;11.736;2022-10-31T02:53:44;5.20;;;3.40;;
12267;SDS011;6196;48.398;11.736;2022-10-31T02:56:12;3.10;;;2.90;;
12267;SDS011;6196;48.398;11.736;2022-10-31T03:09:46;3.20;;;2.90;;
12267;SDS011;6196;48.398;11.736;2022-10-31T03:15:36;3.63;;;2.77;;
12267;SDS011;6196;48.398;11.736;2022-10-31T03:18:13;2.87;;;2.67;;
12267;SDS011;6196;48.398;11.736;2022-10-31T03:23:43;2.60;;;2.40;;
12267;SDS011;6196;48.398;11.736;2022-10-31T03:26:12;3.87;;;2.47;;
12267;SDS011;6196;48.398;11.736;2022-10-31T03:29:00;2.37;;;2.17;;
12267;SDS011;6196;48.398;11.736;2022-10-31T03:31:39;2.40;;;2.20;;
12267;SDS011;6196;48.398;11.736;2022-10-31T03:34:32;4.70;;;3.10;;
12267;SDS011;6196;48.398;11.736;2022-10-31T03:37:03;4.40;;;3.60;;
12267;SDS011;6196;48.398;11.736;2022-10-31T03:39:34;8.27;;;4.47;;
12267;SDS011;6196;48.398;11.736;2022-10-31T03:42:09;7.90;;;4.37;;
12267;SDS011;6196;48.398;11.736;2022-10-31T03:44:43;5.23;;;4.33;;
12267;SDS011;6196;48.398;11.736;2022-10-31T03:47:34;3.97;;;3.40;;
12267;SDS011;6196;48.398;11.736;2022-10-31T03:50:07;5.50;;;3.20;;
12267;SDS011;6196;48.398;11.736;2022-10-31T03:52:42;4.40;;;3.13;;
12267;SDS011;6196;48.398;11.736;2022-10-31T03:59:00;4.33;;;3.27;;
12267;SDS011;6196;48.398;11.736;2022-10-31T04:01:34;6.30;;;3.60;;
12267;SDS011;6196;48.398;11.736;2022-10-31T04:04:06;4.77;;;4.20;;
12267;SDS011;6196;48.398;11.736;2022-10-31T04:06:34;7.57;;;4.70;;
12267;SDS011;6196;48.398;11.736;2022-10-31T04:09:04;5.07;;;4.57;;
12267;SDS011;6196;48.398;11.736;2022-10-31T04:11:35;6.43;;;5.07;;
12267;SDS011;6196;48.398;11.736;2022-10-31T04:14:07;7.23;;;4.20;;
12267;SDS011;6196;48.398;11.736;2022-10-31T04:16:36;4.83;;;3.40;;
12267;SDS011;6196;48.398;11.736;2022-10-31T04:19:05;4.67;;;3.20;;
12267;SDS011;6196;48.398;11.736;2022-10-31T04:21:32;4.40;;;3.00;;
12267;SDS011;6196;48.398;11.736;2022-10-31T04:23:59;4.87;;;3.83;;
12267;SDS011;6196;48.398;11.736;2022-10-31T04:26:26;9.57;;;4.77;;
12267;SDS011;6196;48.398;11.736;2022-10-31T04:28:53;7.57;;;4.97;;
12267;SDS011;6196;48.398;11.736;2022-10-31T04:31:19;8.27;;;4.90;;
12267;SDS011;6196;48.398;11.736;2022-10-31T04:33:46;5.87;;;4.17;;
12267;SDS011;6196;48.398;11.736;2022-10-31T04:36:13;7.17;;;4.23;;
12267;SDS011;6196;48.398;11.736;2022-10-31T04:38:40;4.87;;;4.37;;
12267;SDS011;6196;48.398;11.736;2022-10-31T04:41:07;4.77;;;4.20;;
12267;SDS011;6196;48.398;11.736;2022-10-31T04:43:33;6.07;;;4.13;;
12267;SDS011;6196;48.398;11.736;2022-10-31T04:46:00;4.87;;;4.17;;
12267;SDS011;6196;48.398;11.736;2022-10-31T04:48:27;6.80;;;3.83;;
12267;SDS011;6196;48.398;11.736;2022-10-31T04:51:00;7.27;;;4.10;;
12267;SDS011;6196;48.398;11.736;2022-10-31T04:53:28;4.30;;;3.90;;
12267;SDS011;6196;48.398;11.736;2022-10-31T04:55:57;4.40;;;3.97;;
12267;SDS011;6196;48.398;11.736;2022-10-31T04:58:26;10.67;;;4.90;;
12267;SDS011;6196;48.398;11.736;2022-10-31T05:00:53;9.67;;;4.70;;
12267;SDS011;6196;48.398;11.736;2022-10-31T05:03:21;8.07;;;4.53;;
12267;SDS011;6196;48.398;11.736;2022-10-31T05:05:48;12.30;;;4.20;;
12267;SDS011;6196;48.398;11.736;2022-10-31T05:08:15;11.50;;;4.87;;
12267;SDS011;6196;48.398;11.736;2022-10-31T05:10:42;5.60;;;4.13;;
12267;SDS011;6196;48.398;11.736;2022-10-31T05:13:09;8.33;;;4.37;;
12267;SDS011;6196;48.398;11.736;2022-10-31T05:15:36;13.10;;;4.83;;
12267;SDS011;6196;48.398;11.736;2022-10-31T05:18:03;41.90;;;5.90;;
12267;SDS011;6196;48.398;11.736;2022-10-31T05:20:30;7.40;;;4.27;;
12267;SDS011;6196;48.398;11.736;2022-10-31T05:22:57;11.37;;;4.73;;
12267;SDS011;6196;48.398;11.736;2022-10-31T05:25:26;6.87;;;4.80;;
12267;SDS011;6196;48.398;11.736;2022-10-31T05:27:54;8.77;;;5.33;;
12267;SDS011;6196;48.398;11.736;2022-10-31T05:30:24;6.53;;;5.00;;
12267;SDS011;6196;48.398;11.736;2022-10-31T05:32:54;8.43;;;4.83;;
12267;SDS011;6196;48.398;11.736;2022-10-31T05:35:24;10.10;;;4.53;;
12267;SDS011;6196;48.398;11.736;2022-10-31T05:37:53;5.47;;;4.37;;
12267;SDS011;6196;48.398;11.736;2022-10-31T05:40:21;6.13;;;3.50;;
12267;SDS011;6196;48.398;11.736;2022-10-31T05:42:50;4.97;;;4.07;;
12267;SDS011;6196;48.398;11.736;2022-10-31T05:45:18;5.13;;;4.00;;
12267;SDS011;6196;48.398;11.736;2022-10-31T05:47:56;12.47;;;4.57;;
12267;SDS011;6196;48.398;11.736;2022-10-31T05:50:26;8.80;;;4.03;;
12267;SDS011;6196;48.398;11.736;2022-10-31T05:52:59;18.30;;;4.90;;
12267;SDS011;6196;48.398;11.736;2022-10-31T05:55:28;11.67;;;4.67;;
12267;SDS011;6196;48.398;11.736;2022-10-31T05:57:56;12.83;;;4.20;;
12267;SDS011;6196;48.398;11.736;2022-10-31T06:00:24;8.00;;;4.07;;
12267;SDS011;6196;48.398;11.736;2022-10-31T06:03:02;9.90;;;4.77;;
12267;SDS011;6196;48.398;11.736;2022-10-31T06:05:40;7.83;;;4.90;;
12267;SDS011;6196;48.398;11.736;2022-10-31T06:08:06;6.27;;;4.60;;
12267;SDS011;6196;48.398;11.736;2022-10-31T06:10:33;6.67;;;4.53;;
12267;SDS011;6196;48.398;11.736;2022-10-31T06:13:00;4.50;;;4.10;;
12267;SDS011;6196;48.398;11.736;2022-10-31T06:15:27;4.27;;;3.97;;
12267;SDS011;6196;48.398;11.736;2022-10-31T06:18:12;4.60;;;4.20;;
12267;SDS011;6196;48.398;11.736;2022-10-31T06:20:39;5.33;;;4.77;;
12267;SDS011;6196;48.398;11.736;2022-10-31T06:23:05;5.67;;;4.37;;
12267;SDS011;6196;48.398;11.736;2022-10-31T06:25:32;5.07;;;4.40;;
12267;SDS011;6196;48.398;11.736;2022-10-31T06:27:59;6.30;;;4.53;;
12267;SDS011;6196;48.398;11.736;2022-10-31T06:30:26;4.67;;;4.27;;
12267;SDS011;6196;48.398;11.736;2022-10-31T06:32:53;4.30;;;4.00;;
12267;SDS011;6196;48.398;11.736;2022-10-31T06:35:20;4.63;;;3.63;;
12267;SDS011;6196;48.398;11.736;2022-10-31T06:37:51;3.50;;;3.20;;
12267;SDS011;6196;48.398;11.736;2022-10-31T06:40:19;4.10;;;3.70;;
12267;SDS011;6196;48.398;11.736;2022-10-31T06:42:47;4.07;;;3.73;;
12267;SDS011;6196;48.398;11.736;2022-10-31T06:45:13;4.40;;;4.00;;
12267;SDS011;6196;48.398;11.736;2022-10-31T06:47:40;4.20;;;3.80;;
12267;SDS011;6196;48.398;11.736;2022-10-31T06:50:27;3.60;;;3.33;;
12267;SDS011;6196;48.398;11.736;2022-10-31T06:52:55;4.10;;;3.70;;
12267;SDS011;6196;48.398;11.736;2022-10-31T06:55:25;4.17;;;3.27;;
12267;SDS011;6196;48.398;11.736;2022-10-31T06:57:54;3.87;;;2.60;;
12267;SDS011;6196;48.398;11.736;2022-10-31T07:00:28;5.27;;;3.40;;
12267;SDS011;6196;48.398;11.736;2022-10-31T07:03:00;4.20;;;3.50;;
12267;SDS011;6196;48.398;11.736;2022-10-31T07:05:30;4.10;;;3.63;;
12267;SDS011;6196;48.398;11.736;2022-10-31T07:07:58;3.70;;;3.27;;
12267;SDS011;6196;48.398;11.736;2022-10-31T07:10:29;3.10;;;2.80;;
12267;SDS011;6196;48.398;11.736;2022-10-31T07:13:05;3.03;;;2.70;;
12267;SDS011;6196;48.398;11.736;2022-10-31T07:15:36;4.40;;;2.70;;
12267;SDS011;6196;48.398;11.736;2022-10-31T07:18:06;2.90;;;2.53;;
12267;SDS011;6196;48.398;11.736;2022-10-31T07:20:36;3.43;;;2.60;;
12267;SDS011;6196;48.398;11.736;2022-10-31T07:23:03;5.33;;;2.97;;
12267;SDS011;6196;48.398;11.736;2022-10-31T07:25:31;2.90;;;2.70;;
12267;SDS011;6196;48.398;11.736;2022-10-31T07:27:57;3.63;;;3.10;;
12267;SDS011;6196;48.398;11.736;2022-10-31T07:30:25;4.03;;;3.60;;
12267;SDS011;6196;48.398;11.736;2022-10-31T07:32:52;4.47;;;3.30;;
12267;SDS011;6196;48.398;11.736;2022-10-31T07:35:23;3.97;;;3.40;;
12267;SDS011;6196;48.398;11.736;2022-10-31T07:37:52;6.43;;;4.60;;
12267;SDS011;6196;48.398;11.736;2022-10-31T07:40:21;24.87;;;5.43;;
12267;SDS011;6196;48.398;11.736;2022-10-31T07:42:51;24.90;;;6.03;;
12267;SDS011;6196;48.398;11.736;2022-10-31T07:45:19;9.80;;;5.80;;
12267;SDS011;6196;48.398;11.736;2022-10-31T07:47:48;36.47;;;6.37;;
12267;SDS011;6196;48.398;11.736;2022-10-31T07:50:21;7.63;;;5.53;;
12267;SDS011;6196;48.398;11.736;2022-10-31T07:53:01;10.93;;;5.80;;
12267;SDS011;6196;48.398;11.736;2022-10-31T07:55:36;17.13;;;7.97;;
12267;SDS011;6196;48.398;11.736;2022-10-31T07:58:07;13.30;;;6.20;;
12267;SDS011;6196;48.398;11.736;2022-10-31T08:00:42;20.23;;;5.40;;
12267;SDS011;6196;48.398;11.736;2022-10-31T08:03:12;20.90;;;6.20;;
12267;SDS011;6196;48.398;11.736;2022-10-31T08:05:42;7.73;;;5.20;;
12267;SDS011;6196;48.398;11.736;2022-10-31T08:08:12;7.63;;;5.27;;
12267;SDS011;6196;48.398;11.736;2022-10-31T08:10:39;8.43;;;5.33;;
12267;SDS011;6196;48.398;11.736;2022-10-31T08:13:10;7.87;;;5.47;;
12267;SDS011;6196;48.398;11.736;2022-10-31T08:15:39;6.77;;;5.67;;
12267;SDS011;6196;48.398;11.736;2022-10-31T08:18:12;10.70;;;5.90;;
12267;SDS011;6196;48.398;11.736;2022-10-31T08:20:40;8.13;;;5.90;;
12267;SDS011;6196;48.398;11.736;2022-10-31T08:23:09;6.47;;;5.50;;
12267;SDS011;6196;48.398;11.736;2022-10-31T08:25:37;8.03;;;5.93;;
12267;SDS011;6196;48.398;11.736;2022-10-31T08:28:04;7.17;;;5.57;;
12267;SDS011;6196;48.398;11.736;2022-10-31T08:30:33;9.00;;;5.47;;
12267;SDS011;6196;48.398;11.736;2022-10-31T08:35:37;6.67;;;5.30;;
12267;SDS011;6196;48.398;11.736;2022-10-31T08:38:04;7.70;;;5.17;;
12267;SDS011;6196;48.398;11.736;2022-10-31T08:40:32;7.93;;;5.30;;
12267;SDS011;6196;48.398;11.736;2022-10-31T08:43:00;8.10;;;5.30;;
12267;SDS011;6196;48.398;11.736;2022-10-31T08:45:32;8.90;;;5.70;;
12267;SDS011;6196;48.398;11.736;2022-10-31T08:48:01;8.70;;;5.83;;
12267;SDS011;6196;48.398;11.736;2022-10-31T08:50:36;10.13;;;5.63;;
12267;SDS011;6196;48.398;11.736;2022-10-31T08:53:04;8.50;;;5.30;;
12267;SDS011;6196;48.398;11.736;2022-10-31T08:55:39;9.67;;;6.23;;
12267;SDS011;6196;48.398;11.736;2022-10-31T08:58:09;10.70;;;6.37;;
12267;SDS011;6196;48.398;11.736;2022-10-31T09:00:41;7.43;;;5.90;;
12267;SDS011;6196;48.398;11.736;2022-10-31T09:03:10;8.03;;;5.73;;
12267;SDS011;6196;48.398;11.736;2022-10-31T09:05:40;10.53;;;6.43;;
12267;SDS011;6196;48.398;11.736;2022-10-31T09:08:07;9.50;;;6.57;;
12267;SDS011;6196;48.398;11.736;2022-10-31T09:10:41;6.50;;;5.90;;
12267;SDS011;6196;48.398;11.736;2022-10-31T09:13:09;8.47;;;6.40;;
12267;SDS011;6196;48.398;11.736;2022-10-31T09:15:39;9.00;;;6.50;;
12267;SDS011;6196;48.398;11.736;2022-10-31T09:18:10;8.30;;;7.03;;
12267;SDS011;6196;48.398;11.736;2022-10-31T09:20:38;8.70;;;6.70;;
12267;SDS011;6196;48.398;11.736;2022-10-31T09:23:08;9.93;;;7.60;;
12267;SDS011;6196;48.398;11.736;2022-10-31T09:25:37;8.47;;;7.47;;
12267;SDS011;6196;48.398;11.736;2022-10-31T09:28:05;11.20;;;8.50;;
12267;SDS011;6196;48.398;11.736;2022-10-31T09:30:34;12.30;;;8.70;;
12267;SDS011;6196;48.398;11.736;2022-10-31T09:33:05;12.03;;;8.73;;
12267;SDS011;6196;48.398;11.736;2022-10-31T09:35:36;11.30;;;8.20;;
12267;SDS011;6196;48.398;11.736;2022-10-31T09:38:05;11.83;;;8.70;;
12267;SDS011;6196;48.398;11.736;2022-10-31T09:43:12;11.43;;;8.63;;
12267;SDS011;6196;48.398;11.736;2022-10-31T09:52:10;12.63;;;8.27;;
12267;SDS011;6196;48.398;11.736;2022-10-31T09:54:53;11.07;;;8.30;;
12267;SDS011;6196;48.398;11.736;2022-10-31T09:57:30;14.43;;;8.70;;
12267;SDS011;6196;48.398;11.736;2022-10-31T10:00:00;10.83;;;8.37;;
12267;SDS011;6196;48.398;11.736;2022-10-31T10:02:46;10.50;;;7.77;;
12267;SDS011;6196;48.398;11.736;2022-10-31T10:05:20;13.17;;;7.47;;
12267;SDS011;6196;48.398;11.736;2022-10-31T10:10:52;10.73;;;7.73;;
12267;SDS011;6196;48.398;11.736;2022-10-31T10:19:39;10.67;;;7.10;;
12267;SDS011;6196;48.398;11.736;2022-10-31T10:22:15;13.77;;;7.13;;
12267;SDS011;6196;48.398;11.736;2022-10-31T10:25:20;9.20;;;6.07;;
12267;SDS011;6196;48.398;11.736;2022-10-31T10:30:38;7.80;;;5.80;;
12267;SDS011;6196;48.398;11.736;2022-10-31T10:33:20;8.53;;;6.40;;
12267;SDS011;6196;48.398;11.736;2022-10-31T10:35:54;13.73;;;6.40;;
12267;SDS011;6196;48.398;11.736;2022-10-31T10:38:30;10.50;;;6.07;;
12267;SDS011;6196;48.398;11.736;2022-10-31T10:41:31;11.03;;;5.90;;
12267;SDS011;6196;48.398;11.736;2022-10-31T10:44:00;9.87;;;5.60;;
12267;SDS011;6196;48.398;11.736;2022-10-31T10:52:21;7.37;;;4.90;;
12267;SDS011;6196;48.398;11.736;2022-10-31T10:55:36;10.87;;;5.63;;
12267;SDS011;6196;48.398;11.736;2022-10-31T10:58:24;9.67;;;6.67;;
12267;SDS011;6196;48.398;11.736;2022-10-31T11:00:51;9.07;;;5.20;;
12267;SDS011;6196;48.398;11.736;2022-10-31T11:03:21;11.63;;;6.00;;
12267;SDS011;6196;48.398;11.736;2022-10-31T11:05:55;9.93;;;5.47;;
12267;SDS011;6196;48.398;11.736;2022-10-31T11:08:28;8.53;;;5.37;;
12267;SDS011;6196;48.398;11.736;2022-10-31T11:11:01;9.13;;;5.80;;
12267;SDS011;6196;48.398;11.736;2022-10-31T11:13:44;10.27;;;5.80;;
12267;SDS011;6196;48.398;11.736;2022-10-31T11:16:15;13.20;;;4.87;;
12267;SDS011;6196;48.398;11.736;2022-10-31T11:18:53;10.30;;;5.80;;
12267;SDS011;6196;48.398;11.736;2022-10-31T11:21:32;11.30;;;5.37;;
12267;SDS011;6196;48.398;11.736;2022-10-31T11:24:11;11.83;;;6.67;;
12267;SDS011;6196;48.398;11.736;2022-10-31T11:26:45;13.37;;;6.80;;
12267;SDS011;6196;48.398;11.736;2022-10-31T11:29:21;12.07;;;6.30;;
12267;SDS011;6196;48.398;11.736;2022-10-31T11:31:57;18.73;;;9.50;;
12267;SDS011;6196;48.398;11.736;2022-10-31T11:34:28;12.50;;;7.33;;
12267;SDS011;6196;48.398;11.736;2022-10-31T11:37:23;12.67;;;7.20;;
12267;SDS011;6196;48.398;11.736;2022-10-31T11:39:54;15.77;;;6.83;;
12267;SDS011;6196;48.398;11.736;2022-10-31T11:42:25;11.17;;;7.17;;
12267;SDS011;6196;48.398;11.736;2022-10-31T11:44:55;10.53;;;7.17;;
12267;SDS011;6196;48.398;11.736;2022-10-31T11:47:26;12.80;;;8.73;;
12267;SDS011;6196;48.398;11.736;2022-10-31T11:49:56;11.77;;;7.37;;
12267;SDS011;6196;48.398;11.736;2022-10-31T11:52:27;12.87;;;8.00;;
12267;SDS011;6196;48.398;11.736;2022-10-31T11:57:42;15.33;;;9.00;;
12267;SDS011;6196;48.398;11.736;2022-10-31T12:00:29;15.73;;;8.27;;
12267;SDS011;6196;48.398;11.736;2022-10-31T12:08:49;12.67;;;7.87;;
12267;SDS011;6196;48.398;11.736;2022-10-31T12:17:14;10.43;;;8.37;;
12267;SDS011;6196;48.398;11.736;2022-10-31T12:23:03;13.43;;;8.20;;
12267;SDS011;6196;48.398;11.736;2022-10-31T12:42:39;12.60;;;6.57;;
12267;SDS011;6196;48.398;11.736;2022-10-31T12:48:30;12.87;;;6.97;;
12267;SDS011;6196;48.398;11.736;2022-10-31T12:51:08;9.70;;;7.47;;
12267;SDS011;6196;48.398;11.736;2022-10-31T13:00:02;10.67;;;7.47;;
12267;SDS011;6196;48.398;11.736;2022-10-31T13:02:59;12.40;;;7.07;;
12267;SDS011;6196;48.398;11.736;2022-10-31T13:05:58;12.37;;;7.37;;
12267;SDS011;6196;48.398;11.736;2022-10-31T13:08:35;8.13;;;7.07;;
12267;SDS011;6196;48.398;11.736;2022-10-31T13:11:10;9.67;;;6.70;;
12267;SDS011;6196;48.398;11.736;2022-10-31T13:13:59;9.07;;;6.73;;
12267;SDS011;6196;48.398;11.736;2022-10-31T13:17:01;10.53;;;6.93;;
12267;SDS011;6196;48.398;11.736;2022-10-31T13:19:39;11.17;;;6.80;;
12267;SDS011;6196;48.398;11.736;2022-10-31T13:25:04;13.60;;;6.37;;
12267;SDS011;6196;48.398;11.736;2022-10-31T13:30:37;8.83;;;6.90;;
12267;SDS011;6196;48.398;11.736;2022-10-31T13:33:17;10.07;;;7.30;;
12267;SDS011;6196;48.398;11.736;2022-10-31T13:42:21;13.97;;;7.30;;
12267;SDS011;6196;48.398;11.736;2022-10-31T13:45:31;14.50;;;7.77;;
12267;SDS011;6196;48.398;11.736;2022-10-31T13:48:17;9.67;;;6.47;;
12267;SDS011;6196;48.398;11.736;2022-10-31T13:51:04;11.97;;;6.63;;
12267;SDS011;6196;48.398;11.736;2022-10-31T13:53:38;14.63;;;7.33;;
12267;SDS011;6196;48.398;11.736;2022-10-31T13:56:13;12.13;;;6.93;;
12267;SDS011;6196;48.398;11.736;2022-10-31T13:58:57;11.07;;;6.80;;
12267;SDS011;6196;48.398;11.736;2022-10-31T14:01:48;11.80;;;7.20;;
12267;SDS011;6196;48.398;11.736;2022-10-31T14:04:23;9.83;;;6.43;;
12267;SDS011;6196;48.398;11.736;2022-10-31T14:13:05;15.73;;;7.20;;
12267;SDS011;6196;48.398;11.736;2022-10-31T14:15:43;11.70;;;6.80;;
12267;SDS011;6196;48.398;11.736;2022-10-31T14:19:04;12.47;;;7.20;;
12267;SDS011;6196;48.398;11.736;2022-10-31T14:21:38;10.10;;;6.47;;
12267;SDS011;6196;48.398;11.736;2022-10-31T14:29:49;12.63;;;7.63;;
12267;SDS011;6196;48.398;11.736;2022-10-31T14:32:21;12.40;;;7.40;;
12267;SDS011;6196;48.398;11.736;2022-10-31T14:40:04;10.03;;;6.73;;
12267;SDS011;6196;48.398;11.736;2022-10-31T14:51:43;13.33;;;8.83;;
12267;SDS011;6196;48.398;11.736;2022-10-31T14:54:25;12.10;;;8.17;;
12267;SDS011;6196;48.398;11.736;2022-10-31T15:00:01;11.87;;;8.37;;
12267;SDS011;6196;48.398;11.736;2022-10-31T15:05:20;10.83;;;8.00;;
12267;SDS011;6196;48.398;11.736;2022-10-31T15:07:51;10.50;;;8.57;;
12267;SDS011;6196;48.398;11.736;2022-10-31T15:10:26;14.27;;;9.27;;
12267;SDS011;6196;48.398;11.736;2022-10-31T15:13:10;13.87;;;8.87;;
12267;SDS011;6196;48.398;11.736;2022-10-31T15:15:48;14.50;;;9.47;;
12267;SDS011;6196;48.398;11.736;2022-10-31T15:18:20;14.57;;;8.50;;
12267;SDS011;6196;48.398;11.736;2022-10-31T15:20:51;12.30;;;8.60;;
12267;SDS011;6196;48.398;11.736;2022-10-31T15:23:22;11.03;;;8.73;;
12267;SDS011;6196;48.398;11.736;2022-10-31T15:25:58;12.93;;;9.57;;
12267;SDS011;6196;48.398;11.736;2022-10-31T15:28:30;12.63;;;9.23;;
12267;SDS011;6196;48.398;11.736;2022-10-31T15:30:58;12.80;;;9.00;;
12267;SDS011;6196;48.398;11.736;2022-10-31T15:33:31;13.13;;;9.00;;
12267;SDS011;6196;48.398;11.736;2022-10-31T15:36:20;12.37;;;8.87;;
12267;SDS011;6196;48.398;11.736;2022-10-31T15:38:56;10.63;;;8.53;;
12267;SDS011;6196;48.398;11.736;2022-10-31T15:41:28;15.93;;;9.60;;
12267;SDS011;6196;48.398;11.736;2022-10-31T15:44:03;14.90;;;9.40;;
12267;SDS011;6196;48.398;11.736;2022-10-31T15:46:43;13.73;;;9.27;;
12267;SDS011;6196;48.398;11.736;2022-10-31T15:49:12;11.70;;;8.83;;
12267;SDS011;6196;48.398;11.736;2022-10-31T15:51:53;14.17;;;8.77;;
12267;SDS011;6196;48.398;11.736;2022-10-31T15:54:20;13.33;;;8.93;;
12267;SDS011;6196;48.398;11.736;2022-10-31T15:56:48;14.23;;;9.10;;
12267;SDS011;6196;48.398;11.736;2022-10-31T15:59:24;11.57;;;9.03;;
12267;SDS011;6196;48.398;11.736;2022-10-31T16:02:00;13.87;;;10.40;;
12267;SDS011;6196;48.398;11.736;2022-10-31T16:04:34;16.37;;;8.57;;
12267;SDS011;6196;48.398;11.736;2022-10-31T16:07:02;12.97;;;9.20;;
12267;SDS011;6196;48.398;11.736;2022-10-31T16:09:58;13.10;;;9.37;;
12267;SDS011;6196;48.398;11.736;2022-10-31T16:12:29;13.87;;;10.50;;
12267;SDS011;6196;48.398;11.736;2022-10-31T16:15:02;13.27;;;9.47;;
12267;SDS011;6196;48.398;11.736;2022-10-31T16:17:31;11.93;;;10.23;;
12267;SDS011;6196;48.398;11.736;2022-10-31T16:20:01;15.03;;;10.30;;
12267;SDS011;6196;48.398;11.736;2022-10-31T16:22:35;11.77;;;10.07;;
12267;SDS011;6196;48.398;11.736;2022-10-31T16:25:08;12.43;;;9.10;;
12267;SDS011;6196;48.398;11.736;2022-10-31T16:27:40;12.50;;;10.00;;
12267;SDS011;6196;48.398;11.736;2022-10-31T16:30:36;15.50;;;9.33;;
12267;SDS011;6196;48.398;11.736;2022-10-31T16:33:22;11.07;;;9.63;;
12267;SDS011;6196;48.398;11.736;2022-10-31T16:35:53;11.73;;;9.53;;
12267;SDS011;6196;48.398;11.736;2022-10-31T16:38:41;10.30;;;8.03;;
12267;SDS011;6196;48.398;11.736;2022-10-31T16:41:07;13.73;;;10.27;;
12267;SDS011;6196;48.398;11.736;2022-10-31T16:43:34;10.67;;;8.87;;
12267;SDS011;6196;48.398;11.736;2022-10-31T16:46:01;11.00;;;9.10;;
12267;SDS011;6196;48.398;11.736;2022-10-31T16:48:28;16.40;;;9.50;;
12267;SDS011;6196;48.398;11.736;2022-10-31T16:50:55;11.93;;;9.17;;
12267;SDS011;6196;48.398;11.736;2022-10-31T16:53:22;13.67;;;8.97;;
12267;SDS011;6196;48.398;11.736;2022-10-31T16:55:58;9.53;;;8.53;;
12267;SDS011;6196;48.398;11.736;2022-10-31T16:58:29;11.30;;;8.13;;
12267;SDS011;6196;48.398;11.736;2022-10-31T17:01:04;11.10;;;7.97;;
12267;SDS011;6196;48.398;11.736;2022-10-31T17:03:33;10.37;;;7.60;;
12267;SDS011;6196;48.398;11.736;2022-10-31T17:06:00;10.27;;;7.57;;
12267;SDS011;6196;48.398;11.736;2022-10-31T17:08:26;11.40;;;7.77;;
12267;SDS011;6196;48.398;11.736;2022-10-31T17:10:54;13.83;;;9.03;;
12267;SDS011;6196;48.398;11.736;2022-10-31T17:13:23;17.10;;;8.97;;
12267;SDS011;6196;48.398;11.736;2022-10-31T17:15:56;11.27;;;8.70;;
12267;SDS011;6196;48.398;11.736;2022-10-31T17:18:26;13.50;;;9.30;;
12267;SDS011;6196;48.398;11.736;2022-10-31T17:20:54;14.93;;;9.70;;
12267;SDS011;6196;48.398;11.736;2022-10-31T17:23:24;13.73;;;9.97;;
12267;SDS011;6196;48.398;11.736;2022-10-31T17:25:53;12.13;;;9.97;;
12267;SDS011;6196;48.398;11.736;2022-10-31T17:28:21;13.30;;;10.80;;
12267;SDS011;6196;48.398;11.736;2022-10-31T17:30:47;13.43;;;11.10;;
12267;SDS011;6196;48.398;11.736;2022-10-31T17:33:15;12.90;;;10.13;;
12267;SDS011;6196;48.398;11.736;2022-10-31T17:35:42;11.33;;;9.27;;
12267;SDS011;6196;48.398;11.736;2022-10-31T17:38:10;14.77;;;10.80;;
12267;SDS011;6196;48.398;11.736;2022-10-31T17:40:38;10.43;;;9.43;;
12267;SDS011;6196;48.398;11.736;2022-10-31T17:43:09;16.07;;;10.03;;
12267;SDS011;6196;48.398;11.736;2022-10-31T17:45:40;14.93;;;10.50;;
12267;SDS011;6196;48.398;11.736;2022-10-31T17:48:10;13.80;;;9.47;;
12267;SDS011;6196;48.398;11.736;2022-10-31T17:50:38;10.30;;;8.60;;
12267;SDS011;6196;48.398;11.736;2022-10-31T17:53:05;11.67;;;9.03;;
12267;SDS011;6196;48.398;11.736;2022-10-31T17:55:32;11.87;;;9.23;;